createdAt,value
2019-03-22T00:03:21.179Z,87.52
2019-03-22T00:05:50.553Z,87.50
2019-03-22T00:08:20.194Z,87.47
2019-03-22T00:11:01.733Z,87.42
2019-03-22T00:13:31.091Z,87.42
2019-03-22T00:16:00.464Z,87.30
2019-03-22T00:18:42.514Z,87.42
2019-03-22T00:21:12.075Z,87.42
2019-03-22T00:23:41.431Z,87.81
2019-03-22T00:26:11.108Z,88.10
2019-03-22T00:28:40.465Z,88.28
2019-03-22T00:31:22.888Z,88.16
2019-03-22T00:33:52.342Z,88.16
2019-03-22T00:36:22.011Z,88.40
2019-03-22T00:38:51.968Z,88.42
2019-03-22T00:41:21.355Z,88.42
2019-03-22T00:43:50.700Z,88.43
2019-03-22T00:46:20.220Z,88.49
2019-03-22T00:48:49.892Z,88.56
2019-03-22T00:51:19.260Z,88.68
2019-03-22T00:53:48.618Z,88.75
2019-03-22T00:56:18.331Z,88.79
2019-03-22T00:58:48.585Z,88.84
2019-03-22T01:01:19.588Z,88.87
2019-03-22T01:03:49.308Z,88.83
2019-03-22T01:06:18.692Z,88.76
2019-03-22T01:08:49.959Z,88.76
2019-03-22T01:11:19.643Z,88.60
2019-03-22T01:14:08.552Z,88.35
2019-03-22T01:16:38.239Z,88.35
2019-03-22T01:19:07.602Z,88.31
2019-03-22T01:21:37.233Z,88.36
2019-03-22T01:24:06.531Z,88.44
2019-03-22T01:26:36.373Z,88.59
2019-03-22T01:29:05.732Z,88.80
2019-03-22T01:31:35.357Z,88.96
2019-03-22T01:34:04.717Z,89.13
2019-03-22T01:36:34.249Z,89.35
2019-03-22T01:44:44.690Z,89.66
2019-03-22T01:47:14.381Z,89.64
2019-03-22T01:49:43.756Z,89.70
2019-03-22T01:52:13.369Z,89.79
2019-03-22T01:54:42.741Z,89.96
2019-03-22T01:57:12.512Z,90.10
2019-03-22T01:59:41.867Z,90.22
2019-03-22T02:02:11.415Z,90.26
2019-03-22T02:04:41.227Z,90.33
2019-03-22T02:07:12.274Z,90.45
2019-03-22T02:09:41.643Z,90.51
2019-03-22T02:12:11.309Z,90.37
2019-03-22T02:14:40.675Z,90.26
2019-03-22T02:17:10.355Z,90.32
2019-03-22T02:19:39.719Z,90.44
2019-03-22T02:22:09.345Z,90.47
2019-03-22T02:24:38.695Z,90.55
2019-03-22T02:27:08.365Z,90.74
2019-03-22T02:29:39.353Z,90.95
2019-03-22T02:32:08.729Z,91.18
2019-03-22T02:34:38.447Z,91.36
2019-03-22T02:37:07.809Z,91.46
2019-03-22T02:39:49.709Z,91.51
2019-03-22T02:42:19.363Z,91.51
2019-03-22T02:44:49.196Z,91.48
2019-03-22T02:47:18.556Z,91.64
2019-03-22T02:49:49.030Z,91.86
2019-03-22T02:52:18.392Z,92.16
2019-03-22T02:54:48.753Z,92.28
2019-03-22T02:57:18.124Z,92.46
2019-03-22T03:03:03.719Z,93.01
2019-03-22T03:08:55.771Z,93.27
2019-03-22T03:11:25.446Z,93.27
2019-03-22T03:13:54.824Z,93.43
2019-03-22T03:16:24.797Z,93.43
2019-03-22T03:18:54.741Z,93.38
2019-03-22T03:21:24.420Z,93.34
2019-03-22T03:23:54.116Z,93.21
2019-03-22T03:26:23.507Z,93.13
2019-03-22T03:28:52.885Z,93.20
2019-03-22T03:31:22.469Z,93.36
2019-03-22T03:33:52.143Z,93.47
2019-03-22T03:36:21.603Z,93.68
2019-03-22T03:38:50.959Z,94.06
2019-03-22T03:41:20.621Z,94.35
2019-03-22T03:43:49.981Z,94.73
2019-03-22T03:46:19.511Z,94.94
2019-03-22T03:48:48.932Z,95.08
2019-03-22T03:51:18.829Z,95.16
2019-03-22T03:53:48.988Z,95.28
2019-03-22T03:56:18.651Z,95.38
2019-03-22T03:58:52.685Z,95.46
2019-03-22T04:01:39.088Z,95.55
2019-03-22T04:04:08.526Z,95.80
2019-03-22T04:06:38.220Z,96.11
2019-03-22T04:12:41.761Z,96.69
2019-03-22T04:15:11.363Z,97.21
2019-03-22T04:17:40.748Z,97.45
2019-03-22T04:23:10.949Z,97.59
2019-03-22T04:25:40.627Z,97.91
2019-03-22T04:28:10.015Z,98.24
2019-03-22T04:30:39.929Z,98.58
2019-03-22T04:33:09.312Z,98.61
2019-03-22T04:35:38.717Z,98.36
2019-03-22T04:38:08.108Z,98.06
2019-03-22T04:40:39.078Z,97.70
2019-03-22T04:43:08.696Z,97.37
2019-03-22T04:52:13.956Z,96.54
2019-03-22T04:58:18.310Z,96.29
2019-03-22T05:00:49.016Z,96.18
2019-03-22T05:03:59.333Z,96.07
2019-03-22T05:15:34.919Z,96.57
2019-03-22T05:18:44.343Z,96.72
2019-03-22T05:24:36.781Z,97.21
2019-03-22T05:27:06.237Z,97.16
2019-03-22T05:32:59.219Z,96.77
2019-03-22T05:35:29.241Z,96.65
2019-03-22T05:37:58.894Z,96.74
2019-03-22T05:40:28.550Z,96.88
2019-03-22T05:42:58.225Z,97.01
2019-03-22T05:45:27.910Z,96.98
2019-03-22T05:47:57.284Z,96.63
2019-03-22T05:50:27.215Z,96.62
2019-03-22T05:52:56.878Z,96.85
2019-03-22T05:58:20.391Z,97.10
2019-03-22T06:00:50.322Z,96.88
2019-03-22T06:03:20.029Z,97.11
2019-03-22T06:05:49.645Z,97.23
2019-03-22T06:08:19.015Z,97.11
2019-03-22T06:10:49.229Z,97.30
2019-03-22T06:13:18.850Z,97.27
2019-03-22T06:15:49.205Z,97.13
2019-03-22T06:18:18.931Z,97.09
2019-03-22T06:20:49.343Z,97.28
2019-03-22T06:23:19.032Z,97.42
2019-03-22T06:25:49.371Z,97.51
2019-03-22T06:28:18.881Z,97.78
2019-03-22T06:30:49.252Z,97.71
2019-03-22T06:33:19.236Z,97.85
2019-03-22T06:35:49.405Z,97.94
2019-03-22T06:38:19.020Z,97.94
2019-03-22T06:40:49.355Z,97.93
2019-03-22T06:43:19.010Z,97.75
2019-03-22T06:45:49.269Z,97.60
2019-03-22T06:48:31.572Z,97.67
2019-03-22T06:51:01.312Z,97.67
2019-03-22T06:53:30.992Z,97.91
2019-03-22T06:56:00.755Z,98.08
2019-03-22T06:58:30.119Z,97.90
2019-03-22T07:01:01.255Z,97.80
2019-03-22T07:03:42.578Z,97.98
2019-03-22T07:06:12.185Z,97.92
2019-03-22T07:08:41.852Z,97.86
2019-03-22T07:11:11.228Z,97.78
2019-03-22T07:13:40.895Z,97.51
2019-03-22T07:16:10.268Z,97.69
2019-03-22T07:18:39.643Z,98.04
2019-03-22T07:21:09.155Z,98.27
2019-03-22T07:23:38.540Z,98.30
2019-03-22T07:26:08.150Z,98.39
2019-03-22T07:28:37.530Z,98.06
2019-03-22T07:33:47.192Z,98.10
2019-03-22T07:36:35.671Z,97.37
2019-03-22T07:42:07.220Z,97.73
2019-03-22T07:44:36.611Z,97.58
2019-03-22T07:47:06.266Z,98.06
2019-03-22T07:49:35.941Z,98.87
2019-03-22T07:52:05.596Z,98.97
2019-03-22T07:54:35.237Z,98.90
2019-03-22T07:57:24.328Z,98.58
2019-03-22T07:59:54.025Z,98.06
2019-03-22T08:02:25.493Z,97.91
2019-03-22T08:05:53.644Z,98.20
2019-03-22T08:08:42.436Z,98.27
2019-03-22T08:11:12.107Z,98.27
2019-03-22T08:13:43.160Z,97.40
2019-03-22T08:16:12.508Z,97.49
2019-03-22T08:18:42.190Z,97.28
2019-03-22T08:21:11.532Z,95.50
2019-03-22T08:26:54.694Z,92.01
2019-03-22T08:29:24.194Z,91.28
2019-03-22T08:31:53.537Z,89.43
2019-03-22T08:34:23.237Z,88.66
2019-03-22T08:36:52.584Z,87.38
2019-03-22T08:39:22.345Z,85.86
2019-03-22T08:41:51.691Z,84.13
2019-03-22T08:44:21.291Z,84.08
2019-03-22T08:46:51.313Z,83.75
2019-03-22T08:49:20.781Z,81.76
2019-03-22T08:54:46.438Z,79.36
2019-03-22T08:57:15.809Z,79.75
2019-03-22T08:59:45.336Z,80.86
2019-03-22T09:02:14.680Z,80.48
2019-03-22T09:04:44.400Z,80.88
2019-03-22T09:07:13.622Z,80.86
2019-03-22T09:09:44.574Z,80.23
2019-03-22T09:12:14.334Z,78.87
2019-03-22T09:14:45.265Z,78.76
2019-03-22T09:17:14.688Z,77.17
2019-03-22T09:19:44.329Z,77.71
2019-03-22T09:22:13.709Z,76.81
2019-03-22T09:24:43.386Z,76.47
2019-03-22T09:27:12.735Z,76.70
2019-03-22T09:29:42.316Z,74.86
2019-03-22T09:32:11.729Z,73.61
2019-03-22T09:34:41.370Z,72.88
2019-03-22T09:37:10.767Z,72.73
2019-03-22T09:39:40.329Z,72.13
2019-03-22T09:42:09.699Z,71.43
2019-03-22T09:44:43.591Z,69.56
2019-03-22T09:47:29.557Z,69.46
2019-03-22T09:49:59.548Z,67.37
2019-03-22T09:52:28.921Z,66.65
2019-03-22T09:55:12.129Z,65.34
2019-03-22T09:57:38.568Z,64.82
2019-03-22T10:00:48.897Z,64.09
2019-03-22T10:03:24.748Z,62.94
2019-03-22T10:05:54.442Z,61.04
2019-03-22T10:08:23.779Z,57.92
2019-03-22T10:10:53.691Z,57.71
2019-03-22T10:13:23.447Z,56.41
2019-03-22T10:15:53.013Z,55.85
2019-03-22T10:18:22.798Z,55.91
2019-03-22T10:20:52.483Z,53.82
2019-03-22T10:23:22.498Z,53.82
2019-03-22T10:26:02.656Z,55.70
2019-03-22T10:28:32.100Z,55.66
2019-03-22T10:31:01.888Z,54.91
2019-03-22T10:33:31.502Z,55.15
2019-03-22T10:36:00.970Z,54.80
2019-03-22T10:38:32.158Z,55.27
2019-03-22T10:41:21.020Z,54.45
2019-03-22T10:43:50.671Z,54.24
2019-03-22T10:46:21.666Z,53.80
2019-03-22T10:48:51.397Z,51.95
2019-03-22T10:51:21.649Z,51.57
2019-03-22T10:53:57.585Z,51.38
2019-03-22T10:56:26.904Z,52.98
2019-03-22T10:59:04.189Z,50.92
2019-03-22T11:01:46.521Z,49.97
2019-03-22T11:06:39.565Z,49.77
2019-03-22T11:09:48.985Z,48.81
2019-03-22T11:12:19.960Z,48.79
2019-03-22T11:14:49.924Z,48.17
2019-03-22T11:17:19.560Z,48.36
2019-03-22T11:19:49.923Z,48.67
2019-03-22T11:22:20.901Z,49.82
2019-03-22T11:24:50.624Z,49.39
2019-03-22T11:27:21.983Z,46.90
2019-03-22T11:30:50.142Z,46.90
2019-03-22T11:33:19.572Z,46.87
2019-03-22T11:35:49.912Z,47.41
2019-03-22T11:38:19.302Z,46.89
2019-03-22T11:40:50.600Z,47.91
2019-03-22T11:43:19.970Z,46.21
2019-03-22T11:45:50.061Z,47.11
2019-03-22T11:48:19.680Z,46.32
2019-03-22T11:50:49.974Z,46.74
2019-03-22T11:53:19.651Z,47.81
2019-03-22T11:55:50.067Z,48.09
2019-03-22T11:58:19.958Z,49.56
2019-03-22T12:00:50.071Z,49.16
2019-03-22T12:03:19.677Z,48.06
2019-03-22T12:05:49.972Z,46.74
2019-03-22T12:08:19.334Z,47.00
2019-03-22T12:10:50.096Z,47.62
2019-03-22T12:13:19.701Z,46.67
2019-03-22T12:15:50.256Z,46.54
2019-03-22T12:18:19.682Z,48.23
2019-03-22T12:20:50.097Z,47.48
2019-03-22T12:23:19.420Z,46.89
2019-03-22T12:25:50.145Z,46.69
2019-03-22T12:28:19.752Z,45.90
2019-03-22T12:30:50.189Z,45.75
2019-03-22T12:33:19.701Z,46.37
2019-03-22T12:35:50.068Z,45.85
2019-03-22T12:38:19.776Z,45.12
2019-03-22T12:40:52.242Z,45.53
2019-03-22T12:43:21.699Z,44.84
2019-03-22T12:45:51.415Z,44.59
2019-03-22T12:48:20.808Z,43.95
2019-03-22T12:50:50.511Z,45.02
2019-03-22T12:53:19.873Z,43.39
2019-03-22T12:55:50.125Z,44.15
2019-03-22T12:58:19.821Z,45.16
2019-03-22T13:00:50.204Z,44.83
2019-03-22T13:03:19.804Z,45.13
2019-03-22T13:05:50.194Z,45.00
2019-03-22T13:08:19.857Z,44.83
2019-03-22T13:10:50.329Z,43.65
2019-03-22T13:13:19.756Z,44.13
2019-03-22T13:15:50.487Z,43.98
2019-03-22T13:18:19.848Z,44.39
2019-03-22T13:20:51.158Z,44.85
2019-03-22T13:23:40.305Z,44.05
2019-03-22T13:26:09.979Z,44.30
2019-03-22T13:28:39.621Z,44.55
2019-03-22T13:31:09.327Z,43.90
2019-03-22T13:33:38.847Z,43.97
2019-03-22T13:36:08.224Z,44.33
2019-03-22T13:38:37.884Z,43.38
2019-03-22T13:41:07.509Z,42.71
2019-03-22T13:43:37.277Z,42.23
2019-03-22T13:46:06.917Z,43.34
2019-03-22T13:48:36.595Z,43.01
2019-03-22T13:51:08.243Z,43.57
2019-03-22T13:53:37.611Z,44.52
2019-03-22T13:56:07.043Z,43.87
2019-03-22T13:58:36.401Z,43.71
2019-03-22T14:01:06.087Z,43.94
2019-03-22T14:03:35.696Z,44.37
2019-03-22T14:06:05.380Z,43.27
2019-03-22T14:08:35.085Z,43.52
2019-03-22T14:11:04.466Z,42.27
2019-03-22T14:13:33.980Z,42.48
2019-03-22T14:16:03.356Z,41.84
2019-03-22T14:18:32.941Z,40.66
2019-03-22T14:21:02.617Z,39.99
2019-03-22T14:23:32.078Z,40.46
2019-03-22T14:26:01.500Z,40.56
2019-03-22T14:28:31.254Z,40.58
2019-03-22T14:31:00.631Z,40.89
2019-03-22T14:33:29.984Z,41.27
2019-03-22T14:35:59.651Z,41.86
2019-03-22T14:38:29.095Z,41.94
2019-03-22T14:40:58.452Z,42.09
2019-03-22T14:43:28.072Z,41.00
2019-03-22T14:45:57.442Z,41.39
2019-03-22T14:48:27.051Z,41.85
2019-03-22T14:50:56.433Z,41.45
2019-03-22T14:53:26.134Z,41.94
2019-03-22T14:55:55.568Z,42.48
2019-03-22T14:58:25.314Z,42.39
2019-03-22T15:00:54.991Z,41.88
2019-03-22T15:06:20.035Z,41.99
2019-03-22T15:08:50.338Z,43.32
2019-03-22T15:11:19.748Z,42.55
2019-03-22T15:17:05.250Z,43.50
2019-03-22T15:19:53.714Z,43.00
2019-03-22T15:22:42.225Z,43.33
2019-03-22T15:28:26.964Z,43.30
2019-03-22T15:31:17.545Z,43.69
2019-03-22T15:34:07.649Z,44.38
2019-03-22T15:36:56.630Z,44.32
2019-03-22T15:39:45.344Z,43.94
2019-03-22T15:42:14.702Z,43.27
2019-03-22T15:44:44.143Z,44.53
2019-03-22T15:47:32.616Z,44.92
2019-03-22T15:50:02.269Z,44.20
2019-03-22T15:52:33.594Z,45.04
2019-03-22T15:58:03.771Z,45.94
2019-03-22T16:00:33.225Z,46.20
2019-03-22T16:03:02.604Z,45.87
2019-03-22T16:05:32.110Z,45.58
2019-03-22T16:08:01.785Z,45.20
2019-03-22T16:10:31.403Z,44.83
2019-03-22T16:13:00.863Z,44.90
2019-03-22T16:15:30.220Z,44.85
2019-03-22T16:17:59.631Z,46.20
2019-03-22T16:20:29.204Z,46.20
2019-03-22T16:22:58.577Z,45.55
2019-03-22T16:25:28.227Z,45.44
2019-03-22T16:27:57.608Z,45.58
2019-03-22T16:30:27.262Z,45.41
2019-03-22T16:32:58.446Z,45.92
2019-03-22T16:35:29.415Z,46.00
2019-03-22T16:37:58.800Z,46.02
2019-03-22T16:40:28.345Z,46.26
2019-03-22T16:42:57.727Z,46.72
2019-03-22T16:45:48.035Z,47.04
2019-03-22T16:48:17.412Z,46.78
2019-03-22T16:50:46.763Z,46.93
2019-03-22T16:53:17.240Z,47.32
2019-03-22T16:55:46.849Z,47.59
2019-03-22T16:58:16.375Z,47.99
2019-03-22T17:00:45.735Z,47.74
2019-03-22T17:03:15.355Z,47.75
2019-03-22T17:05:45.821Z,48.19
2019-03-22T17:08:15.632Z,48.25
2019-03-22T17:10:46.853Z,48.30
2019-03-22T17:13:16.484Z,48.62
2019-03-22T17:15:45.840Z,48.77
2019-03-22T17:18:15.371Z,49.09
2019-03-22T17:20:44.753Z,49.32
2019-03-22T17:23:14.593Z,49.80
2019-03-22T17:25:43.966Z,50.03
2019-03-22T17:28:13.482Z,50.20
2019-03-22T17:30:42.850Z,50.32
2019-03-22T17:33:12.343Z,50.49
2019-03-22T17:35:41.967Z,50.69
2019-03-22T17:38:11.320Z,50.87
2019-03-22T17:40:40.698Z,51.12
2019-03-22T17:43:10.063Z,51.41
2019-03-22T17:45:39.436Z,51.76
2019-03-22T17:48:08.813Z,51.98
2019-03-22T17:50:38.453Z,52.28
2019-03-22T17:53:08.116Z,52.46
2019-03-22T17:55:37.500Z,52.74
2019-03-22T17:58:06.880Z,53.02
2019-03-22T18:00:36.566Z,53.28
2019-03-22T18:06:15.356Z,53.51
2019-03-22T18:08:44.740Z,53.84
2019-03-22T18:11:14.385Z,54.20
2019-03-22T18:13:43.771Z,54.63
2019-03-22T18:16:13.129Z,55.19
2019-03-22T18:18:42.511Z,55.56
2019-03-22T18:21:11.880Z,55.64
2019-03-22T18:23:41.467Z,55.49
2019-03-22T18:26:30.519Z,55.37
2019-03-22T18:29:02.063Z,55.79
2019-03-22T18:31:31.622Z,55.79
2019-03-22T18:34:01.032Z,55.93
2019-03-22T18:36:30.887Z,56.54
2019-03-22T18:39:00.499Z,57.19
2019-03-22T18:41:31.521Z,57.17
2019-03-22T18:44:00.874Z,57.09
2019-03-22T18:46:30.556Z,57.15
2019-03-22T18:49:00.066Z,57.29
2019-03-22T18:51:29.496Z,57.46
2019-03-22T18:53:58.888Z,58.01
2019-03-22T18:56:28.538Z,58.50
2019-03-22T18:58:57.916Z,58.91
2019-03-22T19:01:27.281Z,59.32
2019-03-22T19:03:56.912Z,59.48
2019-03-22T19:06:26.583Z,59.76
2019-03-22T19:08:55.947Z,59.76
2019-03-22T19:11:25.634Z,59.83
2019-03-22T19:13:54.991Z,59.99
2019-03-22T19:16:25.989Z,60.21
2019-03-22T19:18:55.673Z,60.45
2019-03-22T19:21:25.090Z,60.70
2019-03-22T19:23:54.756Z,60.93
2019-03-22T19:26:24.136Z,61.02
2019-03-22T19:28:54.103Z,61.63
2019-03-22T19:31:23.782Z,61.63
2019-03-22T19:33:53.157Z,61.67
2019-03-22T19:36:22.699Z,61.89
2019-03-22T19:38:52.064Z,61.93
2019-03-22T19:41:21.741Z,61.96
2019-03-22T19:43:51.118Z,62.02
2019-03-22T19:46:20.776Z,62.15
2019-03-22T19:48:51.135Z,62.36
2019-03-22T19:51:20.765Z,62.54
2019-03-22T19:53:51.135Z,62.72
2019-03-22T19:56:33.455Z,62.95
2019-03-22T19:59:02.818Z,63.22
2019-03-22T20:01:32.202Z,63.46
2019-03-22T20:04:20.903Z,63.64
2019-03-22T20:06:51.220Z,63.93
2019-03-22T20:09:20.717Z,64.10
2019-03-22T20:11:51.155Z,64.35
2019-03-22T20:14:20.765Z,64.54
2019-03-22T20:16:51.151Z,64.76
2019-03-22T20:22:00.090Z,65.18
2019-03-22T20:24:29.765Z,65.43
2019-03-22T20:26:59.155Z,65.62
2019-03-22T20:29:28.822Z,65.91
2019-03-22T20:31:58.498Z,66.15
2019-03-22T20:34:27.925Z,66.43
2019-03-22T20:36:57.326Z,66.70
2019-03-22T20:39:28.303Z,66.91
2019-03-22T20:41:58.024Z,67.04
2019-03-22T20:44:33.925Z,67.26
2019-03-22T20:47:04.124Z,67.42
2019-03-22T20:49:33.503Z,67.57
2019-03-22T20:52:03.209Z,67.72
2019-03-22T20:54:32.939Z,67.99
2019-03-22T20:57:02.390Z,68.24
2019-03-22T21:02:34.155Z,68.81
2019-03-22T21:05:03.574Z,69.03
2019-03-22T21:07:33.114Z,69.88
2019-03-22T21:10:02.483Z,70.20
2019-03-22T21:12:31.920Z,70.44
2019-03-22T21:15:23.531Z,70.87
2019-03-22T21:17:44.179Z,71.21
2019-03-22T21:20:26.159Z,72.06
2019-03-22T21:22:55.523Z,72.06
2019-03-22T21:25:44.125Z,72.11
2019-03-22T21:28:13.517Z,72.62
2019-03-22T21:30:43.089Z,72.62
2019-03-22T21:33:12.480Z,72.85
2019-03-22T21:35:42.079Z,72.90
2019-03-22T21:38:11.599Z,72.85
2019-03-22T21:40:53.168Z,72.81
2019-03-22T21:43:18.126Z,72.77
2019-03-22T21:45:47.556Z,72.80
2019-03-22T21:48:18.871Z,72.84
2019-03-22T21:50:48.268Z,72.91
2019-03-22T21:53:17.995Z,72.98
2019-03-22T21:55:47.381Z,73.05
2019-03-22T21:58:29.217Z,73.32
2019-03-22T22:00:58.600Z,73.32
2019-03-22T22:03:28.394Z,73.19
2019-03-22T22:05:58.060Z,73.51
2019-03-22T22:08:27.453Z,73.98
2019-03-22T22:10:59.997Z,74.39
2019-03-22T22:13:34.259Z,74.58
2019-03-22T22:16:03.631Z,74.91
2019-03-22T22:18:33.137Z,75.02
2019-03-22T22:21:02.510Z,75.21
2019-03-22T22:23:33.507Z,75.36
2019-03-22T22:26:03.343Z,75.56
2019-03-22T22:28:32.707Z,75.70
2019-03-22T22:31:02.166Z,75.69
2019-03-22T22:33:31.888Z,75.81
2019-03-22T22:36:01.264Z,75.94
2019-03-22T22:38:30.637Z,76.18
2019-03-22T22:41:00.304Z,76.42
2019-03-22T22:43:29.687Z,76.53
2019-03-22T22:45:59.392Z,76.66
2019-03-22T22:48:29.057Z,76.77
2019-03-22T22:50:59.001Z,76.83
2019-03-22T22:53:28.661Z,76.92
2019-03-22T22:55:58.674Z,76.95
2019-03-22T23:01:33.016Z,77.07
2019-03-22T23:04:03.040Z,76.89
2019-03-22T23:06:32.763Z,77.01
2019-03-22T23:09:21.768Z,77.04
2019-03-22T23:11:51.653Z,76.98
2019-03-22T23:14:21.245Z,76.88
2019-03-22T23:16:51.535Z,76.50
2019-03-22T23:19:23.331Z,76.00
2019-03-22T23:21:52.721Z,75.39
2019-03-22T23:24:22.192Z,74.89
2019-03-22T23:27:03.684Z,74.11
2019-03-22T23:29:46.190Z,74.11
2019-03-22T23:32:15.561Z,74.11
2019-03-22T23:35:05.323Z,72.91
2019-03-22T23:37:34.714Z,72.91
2019-03-22T23:43:24.621Z,72.17
2019-03-22T23:45:54.334Z,71.62
2019-03-22T23:48:24.029Z,71.36
2019-03-22T23:51:12.937Z,71.21
2019-03-22T23:53:42.455Z,71.06
2019-03-22T23:56:12.112Z,71.00
2019-03-22T23:58:41.503Z,70.93
